createdAt,value
2019-01-06T00:01:49.753Z,17.10
2019-01-06T00:05:02.112Z,17.87
2019-01-06T00:08:01.077Z,19.17
2019-01-06T00:11:08.723Z,20.23
2019-01-06T00:14:04.240Z,15.47
2019-01-06T00:17:05.591Z,20.17
2019-01-06T00:19:57.215Z,18.00
2019-01-06T00:22:48.556Z,17.43
2019-01-06T00:26:00.543Z,18.70
2019-01-06T00:28:51.991Z,23.73
2019-01-06T00:31:46.053Z,25.73
2019-01-06T00:34:53.682Z,21.57
2019-01-06T00:37:51.876Z,24.60
2019-01-06T00:41:19.084Z,27.13
2019-01-06T00:44:10.375Z,26.47
2019-01-06T00:47:01.297Z,27.63
2019-01-06T00:49:52.271Z,30.43
2019-01-06T00:53:00.860Z,24.07
2019-01-06T00:55:58.869Z,27.87
2019-01-06T00:58:49.740Z,23.83
2019-01-06T01:01:40.754Z,24.43
2019-01-06T01:04:45.256Z,30.13
2019-01-06T01:07:50.109Z,28.13
2019-01-06T01:10:57.917Z,38.40
2019-01-06T01:13:48.435Z,34.83
2019-01-06T01:16:39.521Z,29.27
2019-01-06T01:19:41.794Z,33.27
2019-01-06T01:22:49.155Z,31.40
2019-01-06T01:25:39.639Z,37.43
2019-01-06T01:28:41.079Z,36.10
2019-01-06T01:31:48.103Z,32.67
2019-01-06T01:34:56.992Z,29.50
2019-01-06T01:37:48.459Z,32.00
2019-01-06T01:40:39.635Z,31.33
2019-01-06T01:43:38.072Z,28.20
2019-01-06T01:47:01.526Z,32.47
2019-01-06T01:49:53.933Z,29.93
2019-01-06T01:53:02.608Z,29.93
2019-01-06T01:56:05.654Z,28.10
2019-01-06T01:59:20.324Z,28.87
2019-01-06T02:02:11.715Z,27.00
2019-01-06T02:05:21.700Z,27.93
2019-01-06T02:08:20.046Z,31.00
2019-01-06T02:11:04.283Z,30.50
2019-01-06T02:13:53.250Z,32.43
2019-01-06T02:16:44.866Z,30.67
2019-01-06T02:20:05.529Z,30.10
2019-01-06T02:23:16.721Z,27.13
2019-01-06T02:26:20.389Z,30.47
2019-01-06T02:29:12.553Z,35.43
2019-01-06T02:32:07.567Z,31.97
2019-01-06T02:35:04.059Z,32.23
2019-01-06T02:38:11.446Z,28.93
2019-01-06T02:41:04.027Z,32.50
2019-01-06T02:43:56.162Z,31.57
2019-01-06T02:47:03.865Z,31.43
2019-01-06T02:49:58.513Z,28.97
2019-01-06T02:53:07.916Z,28.53
2019-01-06T02:56:05.866Z,29.73
2019-01-06T02:59:23.668Z,31.27
2019-01-06T03:02:15.545Z,40.93
2019-01-06T03:05:07.083Z,31.50
2019-01-06T03:07:58.485Z,35.23
2019-01-06T03:10:49.896Z,33.17
2019-01-06T03:13:48.340Z,37.63
2019-01-06T03:16:39.489Z,37.40
2019-01-06T03:19:40.586Z,36.50
2019-01-06T03:22:51.386Z,33.43
2019-01-06T03:25:59.203Z,31.50
2019-01-06T03:29:13.886Z,35.63
2019-01-06T03:32:35.594Z,32.57
2019-01-06T03:35:34.180Z,30.77
2019-01-06T03:38:55.377Z,31.17
2019-01-06T03:41:47.922Z,30.57
2019-01-06T03:44:46.154Z,34.77
2019-01-06T03:47:52.523Z,31.13
2019-01-06T03:50:59.931Z,31.90
2019-01-06T03:53:58.805Z,31.90
2019-01-06T03:57:06.581Z,33.70
2019-01-06T04:00:11.370Z,33.93
2019-01-06T04:03:18.847Z,35.50
2019-01-06T04:06:09.646Z,37.67
2019-01-06T04:09:02.544Z,30.60
2019-01-06T04:11:58.190Z,34.53
2019-01-06T04:15:13.170Z,38.83
2019-01-06T04:18:03.455Z,39.63
2019-01-06T04:21:00.121Z,36.23
2019-01-06T04:24:12.124Z,40.40
2019-01-06T04:27:26.948Z,38.33
2019-01-06T04:30:21.471Z,40.10
2019-01-06T04:33:12.660Z,42.20
2019-01-06T04:36:05.323Z,40.63
2019-01-06T04:39:00.985Z,38.70
2019-01-06T04:42:06.613Z,37.10
2019-01-06T04:45:17.981Z,39.43
2019-01-06T04:48:11.176Z,34.20
2019-01-06T04:50:57.320Z,30.17
2019-01-06T04:53:59.788Z,32.43
2019-01-06T04:56:53.031Z,22.83
2019-01-06T04:59:47.997Z,28.80
2019-01-06T05:03:11.745Z,26.23
2019-01-06T05:06:22.622Z,25.80
2019-01-06T05:09:47.358Z,35.40
2019-01-06T05:12:39.902Z,33.07
2019-01-06T05:15:25.612Z,29.10
2019-01-06T05:18:33.963Z,27.43
2019-01-06T05:21:29.410Z,29.83
2019-01-06T05:24:18.569Z,28.13
2019-01-06T05:27:07.939Z,29.43
2019-01-06T05:30:16.150Z,32.53
2019-01-06T05:33:17.294Z,34.23
2019-01-06T05:36:16.444Z,30.47
2019-01-06T05:39:14.837Z,33.13
2019-01-06T05:42:41.570Z,32.80
2019-01-06T05:45:53.109Z,31.77
2019-01-06T05:48:44.865Z,30.87
2019-01-06T05:51:54.941Z,30.00
2019-01-06T05:54:57.266Z,24.83
2019-01-06T05:58:01.903Z,32.17
2019-01-06T06:01:10.036Z,27.87
2019-01-06T06:04:18.250Z,28.17
2019-01-06T06:07:25.775Z,32.50
2019-01-06T06:10:19.663Z,28.87
2019-01-06T06:13:18.344Z,29.50
2019-01-06T06:16:08.713Z,25.83
2019-01-06T06:19:07.974Z,27.67
2019-01-06T06:21:58.805Z,20.43
2019-01-06T06:25:07.453Z,21.63
2019-01-06T06:28:09.256Z,20.83
2019-01-06T06:31:26.654Z,24.43
2019-01-06T06:34:51.229Z,23.30
2019-01-06T06:37:53.527Z,23.03
2019-01-06T06:41:01.334Z,22.70
2019-01-06T06:43:53.972Z,23.97
2019-01-06T06:46:55.268Z,23.27
2019-01-06T06:50:05.821Z,25.33
2019-01-06T06:53:13.679Z,20.83
2019-01-06T06:56:44.139Z,25.40
2019-01-06T06:59:35.525Z,20.00
2019-01-06T07:03:17.655Z,25.67
2019-01-06T07:06:29.526Z,25.73
2019-01-06T07:09:43.547Z,21.23
2019-01-06T07:12:44.347Z,19.23
2019-01-06T07:15:35.351Z,19.67
2019-01-06T07:18:35.004Z,18.47
2019-01-06T07:21:34.140Z,19.50
2019-01-06T07:24:25.951Z,19.83
2019-01-06T07:27:42.162Z,23.33
2019-01-06T07:31:01.726Z,21.27
2019-01-06T07:33:57.925Z,19.70
2019-01-06T07:36:57.157Z,21.00
2019-01-06T07:39:58.613Z,20.00
2019-01-06T07:42:49.741Z,19.87
2019-01-06T07:45:54.974Z,17.87
2019-01-06T07:48:46.309Z,15.93
2019-01-06T07:51:40.413Z,14.87
2019-01-06T07:54:36.914Z,9.50
2019-01-06T07:57:37.693Z,8.17
2019-01-06T08:00:32.226Z,9.17
2019-01-06T08:03:33.960Z,6.10
2019-01-06T08:06:32.172Z,4.50
2019-01-06T08:09:41.517Z,5.77
2019-01-06T08:12:49.586Z,6.83
2019-01-06T08:16:14.811Z,4.73
2019-01-06T08:19:06.909Z,4.60
2019-01-06T08:22:34.529Z,3.80
2019-01-06T08:25:25.414Z,5.30
2019-01-06T08:28:33.446Z,5.13
2019-01-06T08:31:41.813Z,4.30
2019-01-06T08:34:49.692Z,5.30
2019-01-06T08:37:55.612Z,4.50
2019-01-06T08:41:13.664Z,5.17
2019-01-06T08:44:40.743Z,4.00
2019-01-06T08:47:32.987Z,4.17
2019-01-06T08:50:23.869Z,3.23
2019-01-06T08:53:25.625Z,3.40
2019-01-06T08:56:42.665Z,5.27
2019-01-06T08:59:59.911Z,2.77
2019-01-06T09:02:51.092Z,3.93
2019-01-06T09:05:49.246Z,6.50
2019-01-06T09:09:05.297Z,4.07
2019-01-06T09:12:15.552Z,4.43
2019-01-06T09:15:17.645Z,5.13
2019-01-06T09:18:39.151Z,4.30
2019-01-06T09:21:32.003Z,3.53
2019-01-06T09:24:42.262Z,2.80
2019-01-06T09:27:27.768Z,4.47
2019-01-06T09:30:20.825Z,4.33
2019-01-06T09:33:15.914Z,4.70
2019-01-06T09:36:18.891Z,3.93
2019-01-06T09:39:10.230Z,3.20
2019-01-06T09:42:09.743Z,3.17
2019-01-06T09:45:00.725Z,3.77
2019-01-06T09:47:52.704Z,4.60
2019-01-06T09:50:45.763Z,3.80
2019-01-06T09:53:38.563Z,3.33
2019-01-06T09:56:46.113Z,5.40
2019-01-06T09:59:36.516Z,3.50
2019-01-06T10:02:29.088Z,2.97
2019-01-06T10:05:36.914Z,2.80
2019-01-06T10:08:28.097Z,3.53
2019-01-06T10:11:14.095Z,4.07
2019-01-06T10:14:03.408Z,2.63
2019-01-06T10:16:54.468Z,3.57
2019-01-06T10:19:45.548Z,2.20
2019-01-06T10:22:52.699Z,3.23
2019-01-06T10:25:52.201Z,2.80
2019-01-06T10:28:41.485Z,6.27
2019-01-06T10:31:51.223Z,2.90
2019-01-06T10:34:42.302Z,3.33
2019-01-06T10:37:28.117Z,3.23
2019-01-06T10:40:35.997Z,3.00
2019-01-06T10:43:34.261Z,4.47
2019-01-06T10:46:44.478Z,3.23
2019-01-06T10:49:36.055Z,2.50
2019-01-06T10:53:06.635Z,3.33
2019-01-06T10:56:18.886Z,3.77
2019-01-06T10:59:11.017Z,2.97
2019-01-06T11:02:16.759Z,4.03
2019-01-06T11:05:06.982Z,2.50
2019-01-06T11:07:59.414Z,1.70
2019-01-06T11:10:50.649Z,1.67
2019-01-06T11:13:42.445Z,1.80
2019-01-06T11:16:56.711Z,2.47
2019-01-06T11:20:07.068Z,2.37
2019-01-06T11:23:25.486Z,1.83
2019-01-06T11:26:35.639Z,1.97
2019-01-06T11:29:26.582Z,1.80
2019-01-06T11:32:19.445Z,1.80
2019-01-06T11:35:21.265Z,1.70
2019-01-06T11:38:34.924Z,4.07
2019-01-06T11:41:45.890Z,1.90
2019-01-06T11:44:53.873Z,1.70
2019-01-06T11:47:45.546Z,3.57
2019-01-06T11:50:51.432Z,1.77
2019-01-06T11:53:55.745Z,1.80
2019-01-06T11:57:20.452Z,1.70
2019-01-06T12:00:10.721Z,2.73
2019-01-06T12:03:03.174Z,2.47
2019-01-06T12:06:13.693Z,1.90
2019-01-06T12:09:06.305Z,2.33
2019-01-06T12:11:58.525Z,1.80
2019-01-06T12:14:55.532Z,1.70
2019-01-06T12:18:00.204Z,1.70
2019-01-06T12:21:26.867Z,2.23
2019-01-06T12:24:50.867Z,1.80
2019-01-06T12:27:42.652Z,1.70
2019-01-06T12:30:35.029Z,1.70
2019-01-06T12:33:19.685Z,2.13
2019-01-06T12:36:14.960Z,1.50
2019-01-06T12:39:25.288Z,1.80
2019-01-06T12:42:39.273Z,1.90
2019-01-06T12:45:37.746Z,2.30
2019-01-06T12:48:35.848Z,2.10
2019-01-06T12:51:44.073Z,3.23
2019-01-06T12:55:11.332Z,1.63
2019-01-06T12:58:22.046Z,3.20
2019-01-06T13:01:17.300Z,2.50
2019-01-06T13:04:19.976Z,2.80
2019-01-06T13:07:07.729Z,2.10
2019-01-06T13:10:15.723Z,2.50
2019-01-06T13:13:17.913Z,1.80
2019-01-06T13:16:09.517Z,1.70
2019-01-06T13:19:17.578Z,2.47
2019-01-06T13:22:08.484Z,3.53
2019-01-06T13:25:02.058Z,2.63
2019-01-06T13:27:58.446Z,2.87
2019-01-06T13:30:49.622Z,2.20
2019-01-06T13:33:43.736Z,2.33
2019-01-06T13:36:34.676Z,3.10
2019-01-06T13:40:02.072Z,2.20
2019-01-06T13:43:29.296Z,3.13
2019-01-06T13:46:20.744Z,2.33
2019-01-06T13:49:11.954Z,2.43
2019-01-06T13:52:23.043Z,2.67
2019-01-06T13:55:15.784Z,3.43
2019-01-06T13:58:06.676Z,4.10
2019-01-06T14:00:57.744Z,2.13
2019-01-06T14:03:50.042Z,1.80
2019-01-06T14:06:57.624Z,2.43
2019-01-06T14:09:52.990Z,3.10
2019-01-06T14:12:54.249Z,2.83
2019-01-06T14:15:44.011Z,2.60
2019-01-06T14:18:35.925Z,2.50
2019-01-06T14:21:43.404Z,2.40
2019-01-06T14:24:39.297Z,2.30
2019-01-06T14:27:46.799Z,2.30
2019-01-06T14:30:37.767Z,2.37
2019-01-06T14:33:33.335Z,1.90
2019-01-06T14:36:29.197Z,1.90
2019-01-06T14:39:20.524Z,2.70
2019-01-06T14:42:24.425Z,1.73
2019-01-06T14:45:17.384Z,3.30
2019-01-06T14:48:07.846Z,3.83
2019-01-06T14:51:21.643Z,4.47
2019-01-06T14:54:05.019Z,4.40
2019-01-06T14:56:57.553Z,2.47
2019-01-06T15:00:05.234Z,3.60
2019-01-06T15:03:09.542Z,5.23
2019-01-06T15:06:16.899Z,9.23
2019-01-06T15:09:08.917Z,3.53
2019-01-06T15:12:18.238Z,3.40
2019-01-06T15:15:05.199Z,5.73
2019-01-06T15:18:13.410Z,2.60
2019-01-06T15:21:31.342Z,2.33
2019-01-06T15:24:24.123Z,3.90
2019-01-06T15:27:15.265Z,2.97
2019-01-06T15:30:16.636Z,2.47
2019-01-06T15:33:15.091Z,3.73
2019-01-06T15:36:30.860Z,2.87
2019-01-06T15:39:22.433Z,3.57
2019-01-06T15:42:30.185Z,3.60
2019-01-06T15:45:54.720Z,5.20
2019-01-06T15:48:53.720Z,5.67
2019-01-06T15:51:45.595Z,6.20
2019-01-06T15:54:50.243Z,7.40
2019-01-06T15:57:51.659Z,5.43
2019-01-06T16:01:09.799Z,6.30
2019-01-06T16:04:01.110Z,4.43
2019-01-06T16:07:05.490Z,8.53
2019-01-06T16:09:56.635Z,5.57
2019-01-06T16:12:47.740Z,7.07
2019-01-06T16:15:55.706Z,5.97
2019-01-06T16:19:13.732Z,9.97
2019-01-06T16:21:59.787Z,15.83
2019-01-06T16:25:10.752Z,8.40
2019-01-06T16:28:28.575Z,11.00
2019-01-06T16:31:20.842Z,10.10
2019-01-06T16:34:27.130Z,8.70
2019-01-06T16:37:20.047Z,14.93
2019-01-06T16:40:28.015Z,9.27
2019-01-06T16:43:25.120Z,12.13
2019-01-06T16:46:23.760Z,12.47
2019-01-06T16:49:32.929Z,11.57
2019-01-06T16:52:43.865Z,10.97
2019-01-06T16:55:51.716Z,11.47
2019-01-06T16:58:42.524Z,8.57
2019-01-06T17:01:38.029Z,6.97
2019-01-06T17:04:49.108Z,8.67
2019-01-06T17:07:53.254Z,7.30
2019-01-06T17:10:51.573Z,11.73
2019-01-06T17:13:59.666Z,6.60
2019-01-06T17:16:49.784Z,9.33
2019-01-06T17:20:04.466Z,10.33
2019-01-06T17:23:28.219Z,10.80
2019-01-06T17:26:36.138Z,9.63
2019-01-06T17:29:26.467Z,8.27
2019-01-06T17:32:37.264Z,13.30
2019-01-06T17:35:32.494Z,11.17
2019-01-06T17:38:33.942Z,17.17
2019-01-06T17:41:26.712Z,17.07
2019-01-06T17:44:22.369Z,18.70
2019-01-06T17:47:13.332Z,16.23
2019-01-06T17:50:04.329Z,16.13
2019-01-06T17:52:56.860Z,18.83
2019-01-06T17:56:20.587Z,11.17
2019-01-06T17:59:25.010Z,7.20
2019-01-06T18:02:33.047Z,9.37
2019-01-06T18:05:42.716Z,6.00
2019-01-06T18:08:56.784Z,5.90
2019-01-06T18:11:48.887Z,7.40
2019-01-06T18:14:53.360Z,7.43
2019-01-06T18:17:46.829Z,6.43
2019-01-06T18:20:51.258Z,5.67
2019-01-06T18:23:42.724Z,10.03
2019-01-06T18:26:53.030Z,10.40
2019-01-06T18:29:45.613Z,9.07
2019-01-06T18:32:39.189Z,9.90
2019-01-06T18:36:02.608Z,11.37
2019-01-06T18:39:10.077Z,10.47
2019-01-06T18:42:08.495Z,12.87
2019-01-06T18:45:09.423Z,15.57
2019-01-06T18:48:02.405Z,15.77
2019-01-06T18:50:53.532Z,13.07
2019-01-06T18:54:04.159Z,11.93
2019-01-06T18:56:52.183Z,12.30
2019-01-06T18:59:44.170Z,13.83
2019-01-06T19:02:52.774Z,12.03
2019-01-06T19:05:43.967Z,14.53
2019-01-06T19:08:35.825Z,15.30
2019-01-06T19:11:31.114Z,16.93
2019-01-06T19:14:22.064Z,16.00
2019-01-06T19:17:13.270Z,16.30
2019-01-06T19:20:27.880Z,12.53
2019-01-06T19:23:22.750Z,13.77
2019-01-06T19:26:13.705Z,14.70
2019-01-06T19:29:05.535Z,13.47
2019-01-06T19:32:29.727Z,17.33
2019-01-06T19:35:41.674Z,15.23
2019-01-06T19:38:33.123Z,17.83
2019-01-06T19:41:37.656Z,17.03
2019-01-06T19:44:53.998Z,13.87
2019-01-06T19:47:49.183Z,15.17
2019-01-06T19:51:08.978Z,12.83
2019-01-06T19:54:01.206Z,12.93
2019-01-06T19:56:52.608Z,14.83
2019-01-06T19:59:50.966Z,14.27
2019-01-06T20:03:01.937Z,16.27
2019-01-06T20:06:10.040Z,14.27
2019-01-06T20:09:18.536Z,13.33
2019-01-06T20:12:10.946Z,9.87
2019-01-06T20:15:10.297Z,12.57
2019-01-06T20:18:07.045Z,14.00
2019-01-06T20:20:58.340Z,11.80
2019-01-06T20:23:50.882Z,15.23
2019-01-06T20:26:55.226Z,9.73
2019-01-06T20:30:04.819Z,10.07
2019-01-06T20:33:14.721Z,14.50
2019-01-06T20:36:06.929Z,17.43
2019-01-06T20:39:22.239Z,14.03
2019-01-06T20:42:13.541Z,14.37
2019-01-06T20:45:14.812Z,12.70
2019-01-06T20:48:31.915Z,13.00
2019-01-06T20:51:28.287Z,11.90
2019-01-06T20:54:56.302Z,12.20
2019-01-06T20:57:48.365Z,15.10
2019-01-06T21:00:57.478Z,17.97
2019-01-06T21:03:52.379Z,11.40
2019-01-06T21:07:06.361Z,14.87
2019-01-06T21:10:28.598Z,16.00
2019-01-06T21:13:16.189Z,16.80
2019-01-06T21:16:20.691Z,12.87
2019-01-06T21:19:28.622Z,19.03
2019-01-06T21:22:44.315Z,14.50
2019-01-06T21:25:38.408Z,18.50
2019-01-06T21:28:33.305Z,16.17
2019-01-06T21:31:24.316Z,16.03
2019-01-06T21:34:26.141Z,15.87
2019-01-06T21:37:11.735Z,14.13
2019-01-06T21:40:22.392Z,18.70
2019-01-06T21:43:37.679Z,18.80
2019-01-06T21:46:36.914Z,15.07
2019-01-06T21:49:29.427Z,14.63
2019-01-06T21:52:24.758Z,14.30
2019-01-06T21:55:33.239Z,14.63
2019-01-06T21:58:54.316Z,15.60
2019-01-06T22:01:45.480Z,17.77
2019-01-06T22:04:41.127Z,15.30
2019-01-06T22:07:51.701Z,18.00
2019-01-06T22:11:02.809Z,22.17
2019-01-06T22:14:14.780Z,15.33
2019-01-06T22:17:19.566Z,22.87
2019-01-06T22:20:44.294Z,20.80
2019-01-06T22:26:33.476Z,17.33
2019-01-06T22:29:31.732Z,21.67
2019-01-06T22:32:46.281Z,19.80
2019-01-06T22:35:54.119Z,22.57
2019-01-06T22:38:39.471Z,25.17
2019-01-06T22:41:47.351Z,25.73
2019-01-06T22:44:47.682Z,20.80
2019-01-06T22:48:10.326Z,20.77
2019-01-06T22:50:59.318Z,27.53
2019-01-06T22:53:54.430Z,22.77
2019-01-06T22:57:01.656Z,26.40
2019-01-06T23:00:00.283Z,26.30
2019-01-06T23:02:52.129Z,24.17
2019-01-06T23:05:45.813Z,22.67
2019-01-06T23:08:36.453Z,25.07
2019-01-06T23:11:31.835Z,29.97
2019-01-06T23:14:29.070Z,22.13
2019-01-06T23:17:24.476Z,20.77
2019-01-06T23:20:47.806Z,27.10
2019-01-06T23:23:49.244Z,25.10
2019-01-06T23:26:56.544Z,26.90
2019-01-06T23:30:04.756Z,27.97
2019-01-06T23:33:06.286Z,31.87
2019-01-06T23:35:53.057Z,29.10
2019-01-06T23:39:00.808Z,25.07
2019-01-06T23:42:06.490Z,25.87
2019-01-06T23:45:03.359Z,27.70
2019-01-06T23:48:01.412Z,27.93
2019-01-06T23:51:04.646Z,27.23
2019-01-06T23:54:20.880Z,28.40
2019-01-06T23:57:11.435Z,21.40
